createdAt,value
2023-01-30T00:02:46.786Z,-3.72
2023-01-30T00:07:49.519Z,-3.81
2023-01-30T00:12:52.247Z,-3.81
2023-01-30T00:17:54.601Z,-3.84
2023-01-30T00:23:01.002Z,-3.81
2023-01-30T00:28:03.786Z,-3.88
2023-01-30T00:33:06.044Z,-3.92
2023-01-30T00:38:08.362Z,-3.93
2023-01-30T00:43:28.272Z,-3.99
2023-01-30T00:48:30.727Z,-3.96
2023-01-30T00:53:33.111Z,-3.94
2023-01-30T00:58:35.447Z,-4.01
2023-01-30T01:03:37.833Z,-4.07
2023-01-30T01:08:40.262Z,-4.09
2023-01-30T01:13:42.665Z,-4.07
2023-01-30T01:18:45.115Z,-4.15
2023-01-30T01:23:47.486Z,-4.22
2023-01-30T01:28:49.729Z,-4.28
2023-01-30T01:33:52.144Z,-4.21
2023-01-30T01:38:54.539Z,-4.27
2023-01-30T01:43:56.855Z,-4.24
2023-01-30T01:48:59.164Z,-4.28
2023-01-30T01:54:01.584Z,-4.30
2023-01-30T01:59:04.045Z,-4.28
2023-01-30T02:04:08.882Z,-4.29
2023-01-30T02:09:11.314Z,-4.26
2023-01-30T02:14:13.716Z,-4.21
2023-01-30T02:19:16.162Z,-4.29
2023-01-30T02:24:18.659Z,-4.33
2023-01-30T02:29:20.954Z,-4.29
2023-01-30T02:34:23.313Z,-4.32
2023-01-30T02:39:25.706Z,-4.29
2023-01-30T02:44:28.004Z,-4.32
2023-01-30T02:49:30.433Z,-4.35
2023-01-30T02:54:32.891Z,-4.29
2023-01-30T02:59:35.390Z,-4.33
2023-01-30T03:04:37.702Z,-4.31
2023-01-30T03:09:40.062Z,-4.37
2023-01-30T03:14:42.453Z,-4.30
2023-01-30T03:19:44.874Z,-4.24
2023-01-30T03:24:47.240Z,-4.26
2023-01-30T03:29:49.653Z,-4.19
2023-01-30T03:34:52.012Z,-4.19
2023-01-30T03:39:54.311Z,-4.08
2023-01-30T03:44:56.692Z,-4.05
2023-01-30T03:49:59.051Z,-4.02
2023-01-30T03:55:01.567Z,-3.97
2023-01-30T04:00:04.511Z,-3.91
2023-01-30T04:05:06.933Z,-3.86
2023-01-30T04:10:09.358Z,-3.89
2023-01-30T04:15:11.758Z,-3.82
2023-01-30T04:20:14.133Z,-3.73
2023-01-30T04:25:17.045Z,-3.74
2023-01-30T04:30:19.939Z,-3.75
2023-01-30T04:35:22.242Z,-3.72
2023-01-30T04:40:24.633Z,-3.76
2023-01-30T04:45:28.327Z,-3.73
2023-01-30T04:50:31.019Z,-3.70
2023-01-30T04:55:33.411Z,-3.80
2023-01-30T05:00:35.828Z,-3.82
2023-01-30T05:05:38.234Z,-3.81
2023-01-30T05:10:40.653Z,-3.87
2023-01-30T05:15:43.093Z,-3.88
2023-01-30T05:20:45.679Z,-3.83
2023-01-30T05:25:48.082Z,-3.78
2023-01-30T05:30:50.541Z,-3.75
2023-01-30T05:35:53.096Z,-3.75
2023-01-30T05:40:55.445Z,-3.62
2023-01-30T05:45:57.781Z,-3.63
2023-01-30T05:51:00.136Z,-3.57
2023-01-30T05:56:02.451Z,-3.48
2023-01-30T06:01:04.769Z,-3.37
2023-01-30T06:06:07.077Z,-3.38
2023-01-30T06:11:09.473Z,-3.26
2023-01-30T06:16:12.877Z,-3.16
2023-01-30T06:21:15.521Z,-3.00
2023-01-30T06:26:17.935Z,-2.93
2023-01-30T06:31:32.643Z,-3.00
2023-01-30T06:36:35.508Z,-3.08
2023-01-30T06:41:37.925Z,-3.04
2023-01-30T06:46:40.260Z,-3.02
2023-01-30T06:51:42.653Z,-2.92
2023-01-30T06:56:44.949Z,-2.75
2023-01-30T07:01:47.232Z,-2.53
2023-01-30T07:06:49.986Z,-2.32
2023-01-30T07:11:52.266Z,-2.03
2023-01-30T07:16:54.639Z,-1.93
2023-01-30T07:21:57.044Z,-1.83
2023-01-30T07:26:59.411Z,-1.76
2023-01-30T07:32:01.827Z,-1.66
2023-01-30T07:37:04.221Z,-1.49
2023-01-30T07:42:06.514Z,-1.51
2023-01-30T07:47:08.841Z,-1.42
2023-01-30T07:52:11.207Z,-1.11
2023-01-30T07:57:13.587Z,-0.90
2023-01-30T08:02:15.963Z,-0.83
2023-01-30T08:07:18.301Z,-0.70
2023-01-30T08:12:20.612Z,-0.63
2023-01-30T08:17:24.844Z,-0.50
2023-01-30T08:22:27.921Z,-0.38
2023-01-30T08:27:30.315Z,-0.51
2023-01-30T08:32:32.935Z,-0.64
2023-01-30T08:37:35.323Z,-0.70
2023-01-30T08:42:37.713Z,-0.69
2023-01-30T08:47:40.011Z,-0.47
2023-01-30T08:52:42.304Z,-0.32
2023-01-30T08:57:52.545Z,-0.10
2023-01-30T09:02:55.501Z,0.08
2023-01-30T09:07:57.880Z,-0.09
2023-01-30T09:13:00.192Z,-0.01
2023-01-30T09:18:02.566Z,0.06
2023-01-30T09:23:04.882Z,0.17
2023-01-30T09:28:08.068Z,0.33
2023-01-30T09:33:10.455Z,0.44
2023-01-30T09:38:12.784Z,1.03
2023-01-30T09:43:15.172Z,1.37
2023-01-30T09:48:18.015Z,1.67
2023-01-30T09:53:20.796Z,1.75
2023-01-30T09:58:23.145Z,1.74
2023-01-30T10:03:25.480Z,1.63
2023-01-30T10:08:27.993Z,1.51
2023-01-30T10:13:30.373Z,1.47
2023-01-30T10:18:32.892Z,1.40
2023-01-30T10:23:35.229Z,1.44
2023-01-30T10:28:37.592Z,1.44
2023-01-30T10:33:40.695Z,1.57
2023-01-30T10:38:45.108Z,1.83
2023-01-30T10:43:48.116Z,2.31
2023-01-30T10:48:50.503Z,2.74
2023-01-30T10:53:53.181Z,3.10
2023-01-30T10:58:55.866Z,3.11
2023-01-30T11:03:58.297Z,3.38
2023-01-30T11:09:00.621Z,3.17
2023-01-30T11:14:02.996Z,3.20
2023-01-30T11:19:22.160Z,3.28
2023-01-30T11:24:24.860Z,3.42
2023-01-30T11:29:27.209Z,3.53
2023-01-30T11:34:29.602Z,3.38
2023-01-30T11:39:32.556Z,3.45
2023-01-30T11:44:35.109Z,3.76
2023-01-30T11:49:45.394Z,4.08
2023-01-30T11:55:01.371Z,3.91
2023-01-30T12:00:03.726Z,3.63
2023-01-30T12:05:06.146Z,3.46
2023-01-30T12:10:08.653Z,3.40
2023-01-30T12:15:10.988Z,3.31
2023-01-30T12:20:13.476Z,3.24
2023-01-30T12:25:15.830Z,3.13
2023-01-30T12:30:18.463Z,3.21
2023-01-30T12:35:21.070Z,3.14
2023-01-30T12:40:23.465Z,3.13
2023-01-30T12:45:25.826Z,3.24
2023-01-30T12:50:28.220Z,3.35
2023-01-30T12:55:30.708Z,3.52
2023-01-30T13:00:33.023Z,3.45
2023-01-30T13:05:35.460Z,3.40
2023-01-30T13:10:37.973Z,3.60
2023-01-30T13:15:40.292Z,3.52
2023-01-30T13:20:42.700Z,3.44
2023-01-30T13:25:45.294Z,3.19
2023-01-30T13:30:47.786Z,3.18
2023-01-30T13:35:50.176Z,3.30
2023-01-30T13:40:52.945Z,3.07
2023-01-30T13:45:55.529Z,3.18
2023-01-30T13:50:58.169Z,3.12
2023-01-30T13:56:00.747Z,3.07
2023-01-30T14:01:03.271Z,3.09
2023-01-30T14:06:05.706Z,2.98
2023-01-30T14:11:08.295Z,2.94
2023-01-30T14:16:11.006Z,2.89
2023-01-30T14:21:13.371Z,2.81
2023-01-30T14:26:15.914Z,2.71
2023-01-30T14:31:18.485Z,2.58
2023-01-30T14:36:20.833Z,2.56
2023-01-30T14:41:23.168Z,2.38
2023-01-30T14:46:25.536Z,2.44
2023-01-30T14:51:28.097Z,2.41
2023-01-30T14:56:30.566Z,2.39
2023-01-30T15:01:32.906Z,2.38
2023-01-30T15:06:35.214Z,2.26
2023-01-30T15:11:37.619Z,2.25
2023-01-30T15:16:40.214Z,2.17
2023-01-30T15:21:42.617Z,2.05
2023-01-30T15:26:45.009Z,2.14
2023-01-30T15:31:47.555Z,2.04
2023-01-30T15:36:49.973Z,1.96
2023-01-30T15:41:53.275Z,1.96
2023-01-30T15:46:55.730Z,2.00
2023-01-30T15:51:58.047Z,1.93
2023-01-30T15:57:00.567Z,1.95
2023-01-30T16:02:02.975Z,1.84
2023-01-30T16:07:05.671Z,1.80
2023-01-30T16:12:07.985Z,1.74
2023-01-30T16:17:10.543Z,1.74
2023-01-30T16:22:12.895Z,1.66
2023-01-30T16:27:15.307Z,1.45
2023-01-30T16:32:19.751Z,1.24
2023-01-30T16:37:22.132Z,1.18
2023-01-30T16:42:24.699Z,1.06
2023-01-30T16:47:27.095Z,1.05
2023-01-30T16:52:29.422Z,0.97
2023-01-30T16:57:35.998Z,1.00
2023-01-30T17:02:38.647Z,1.11
2023-01-30T17:07:40.946Z,1.11
2023-01-30T17:12:43.468Z,1.13
2023-01-30T17:17:45.756Z,1.07
2023-01-30T17:22:48.210Z,1.04
2023-01-30T17:27:50.608Z,1.03
2023-01-30T17:32:53.068Z,1.10
2023-01-30T17:38:04.609Z,1.11
2023-01-30T17:43:09.571Z,1.16
2023-01-30T17:48:12.004Z,0.96
2023-01-30T17:53:15.371Z,1.02
2023-01-30T17:58:18.046Z,0.94
2023-01-30T18:03:20.524Z,0.94
2023-01-30T18:08:22.989Z,1.04
2023-01-30T18:13:25.375Z,1.16
2023-01-30T18:18:27.788Z,1.04
2023-01-30T18:23:30.123Z,1.11
2023-01-30T18:28:32.498Z,1.07
2023-01-30T18:33:34.946Z,1.12
2023-01-30T18:38:37.325Z,1.15
2023-01-30T18:43:39.906Z,1.13
2023-01-30T18:48:42.532Z,1.36
2023-01-30T18:53:44.916Z,1.44
2023-01-30T18:58:49.537Z,1.60
2023-01-30T19:03:51.833Z,1.49
2023-01-30T19:08:54.111Z,1.36
2023-01-30T19:13:56.445Z,1.41
2023-01-30T19:18:58.727Z,1.41
2023-01-30T19:24:00.994Z,1.43
2023-01-30T19:29:03.567Z,1.38
2023-01-30T19:34:06.255Z,1.48
2023-01-30T19:39:08.643Z,1.52
2023-01-30T19:44:10.948Z,1.48
2023-01-30T19:49:13.261Z,1.45
2023-01-30T19:54:16.052Z,1.48
2023-01-30T19:59:18.515Z,1.47
2023-01-30T20:04:20.851Z,1.22
2023-01-30T20:09:23.254Z,1.24
2023-01-30T20:14:25.667Z,1.25
2023-01-30T20:19:28.144Z,1.32
2023-01-30T20:24:30.445Z,1.38
2023-01-30T20:29:32.736Z,1.44
2023-01-30T20:34:35.096Z,1.42
2023-01-30T20:39:37.512Z,1.46
2023-01-30T20:44:39.857Z,1.48
2023-01-30T20:49:42.355Z,1.47
2023-01-30T20:54:44.746Z,1.49
2023-01-30T20:59:47.237Z,1.44
2023-01-30T21:04:49.569Z,1.46
2023-01-30T21:09:51.942Z,1.50
2023-01-30T21:14:54.345Z,1.47
2023-01-30T21:19:56.673Z,1.47
2023-01-30T21:24:59.403Z,1.52
2023-01-30T21:30:01.891Z,1.41
2023-01-30T21:35:04.253Z,1.50
2023-01-30T21:40:24.101Z,1.44
2023-01-30T21:45:26.528Z,1.45
2023-01-30T21:50:28.880Z,1.35
2023-01-30T21:55:31.181Z,1.40
2023-01-30T22:00:33.497Z,1.33
2023-01-30T22:05:36.714Z,1.37
2023-01-30T22:10:39.155Z,1.31
2023-01-30T22:15:41.530Z,1.23
2023-01-30T22:20:43.930Z,1.32
2023-01-30T22:25:46.296Z,1.27
2023-01-30T22:30:48.632Z,1.26
2023-01-30T22:35:51.114Z,1.28
2023-01-30T22:40:53.437Z,1.27
2023-01-30T22:45:55.737Z,1.31
2023-01-30T22:50:58.107Z,1.28
2023-01-30T22:56:00.422Z,1.33
2023-01-30T23:01:02.704Z,1.28
2023-01-30T23:06:05.079Z,1.32
2023-01-30T23:11:07.360Z,1.23
2023-01-30T23:16:09.662Z,1.23
2023-01-30T23:21:12.561Z,1.23
2023-01-30T23:26:15.029Z,1.26
2023-01-30T23:31:17.595Z,1.33
2023-01-30T23:36:20.035Z,1.36
2023-01-30T23:41:22.396Z,1.33
2023-01-30T23:46:24.730Z,1.31
2023-01-30T23:51:29.392Z,1.32
2023-01-30T23:56:31.756Z,1.33
